sensor_id;sensor_type;location;lat;lon;timestamp;temperature;humidity
37974;DHT22;23796;51.458;7.000;2022-08-11T00:00:43;21.80;92.30
37974;DHT22;23796;51.458;7.000;2022-08-11T00:03:12;21.80;92.60
37974;DHT22;23796;51.458;7.000;2022-08-11T00:05:50;21.80;92.90
37974;DHT22;23796;51.458;7.000;2022-08-11T00:08:29;21.80;93.10
37974;DHT22;23796;51.458;7.000;2022-08-11T00:10:57;21.80;93.10
37974;DHT22;23796;51.458;7.000;2022-08-11T00:13:38;21.70;93.30
37974;DHT22;23796;51.458;7.000;2022-08-11T00:16:20;21.60;93.70
37974;DHT22;23796;51.458;7.000;2022-08-11T00:18:49;21.60;94.00
37974;DHT22;23796;51.458;7.000;2022-08-11T00:21:16;21.60;94.20
37974;DHT22;23796;51.458;7.000;2022-08-11T00:23:46;21.60;94.30
37974;DHT22;23796;51.458;7.000;2022-08-11T00:26:15;21.60;94.60
37974;DHT22;23796;51.458;7.000;2022-08-11T00:28:42;21.50;94.90
37974;DHT22;23796;51.458;7.000;2022-08-11T00:31:19;21.50;95.10
37974;DHT22;23796;51.458;7.000;2022-08-11T00:33:46;21.40;95.30
37974;DHT22;23796;51.458;7.000;2022-08-11T00:36:16;21.40;95.80
37974;DHT22;23796;51.458;7.000;2022-08-11T00:38:44;21.30;96.00
37974;DHT22;23796;51.458;7.000;2022-08-11T01:06:46;20.80;99.60
37974;DHT22;23796;51.458;7.000;2022-08-11T01:18:33;20.60;99.90
37974;DHT22;23796;51.458;7.000;2022-08-11T01:30:40;20.50;99.90
37974;DHT22;23796;51.458;7.000;2022-08-11T01:43:03;20.40;99.90
37974;DHT22;23796;51.458;7.000;2022-08-11T01:45:58;20.40;99.90
37974;DHT22;23796;51.458;7.000;2022-08-11T01:48:40;20.30;99.90
37974;DHT22;23796;51.458;7.000;2022-08-11T01:54:40;20.30;99.90
37974;DHT22;23796;51.458;7.000;2022-08-11T01:59:53;20.20;99.90
37974;DHT22;23796;51.458;7.000;2022-08-11T02:02:36;20.20;99.90
37974;DHT22;23796;51.458;7.000;2022-08-11T02:11:20;20.10;99.90
37974;DHT22;23796;51.458;7.000;2022-08-11T02:17:11;20.10;99.90
37974;DHT22;23796;51.458;7.000;2022-08-11T02:20:00;20.00;99.90
37974;DHT22;23796;51.458;7.000;2022-08-11T02:26:04;20.00;99.90
37974;DHT22;23796;51.458;7.000;2022-08-11T02:48:12;19.70;99.90
37974;DHT22;23796;51.458;7.000;2022-08-11T03:02:06;19.50;99.90
37974;DHT22;23796;51.458;7.000;2022-08-11T03:04:59;19.50;99.90
37974;DHT22;23796;51.458;7.000;2022-08-11T03:13:55;19.50;99.90
37974;DHT22;23796;51.458;7.000;2022-08-11T03:16:54;19.50;99.90
37974;DHT22;23796;51.458;7.000;2022-08-11T03:19:33;19.50;99.90
37974;DHT22;23796;51.458;7.000;2022-08-11T03:25:31;19.50;99.90
37974;DHT22;23796;51.458;7.000;2022-08-11T03:28:28;19.50;99.90
37974;DHT22;23796;51.458;7.000;2022-08-11T03:31:15;19.50;99.90
37974;DHT22;23796;51.458;7.000;2022-08-11T03:34:08;19.40;99.90
37974;DHT22;23796;51.458;7.000;2022-08-11T03:47:48;19.20;99.90
37974;DHT22;23796;51.458;7.000;2022-08-11T04:01:34;19.00;99.90
37974;DHT22;23796;51.458;7.000;2022-08-11T04:04:13;18.90;99.90
37974;DHT22;23796;51.458;7.000;2022-08-11T04:31:37;18.70;99.90
37974;DHT22;23796;51.458;7.000;2022-08-11T04:54:45;18.80;99.90
37974;DHT22;23796;51.458;7.000;2022-08-11T05:13:00;18.80;99.90
37974;DHT22;23796;51.458;7.000;2022-08-11T05:15:55;18.90;99.90
37974;DHT22;23796;51.458;7.000;2022-08-11T05:18:51;18.90;99.90
37974;DHT22;23796;51.458;7.000;2022-08-11T05:21:37;18.90;99.90
37974;DHT22;23796;51.458;7.000;2022-08-11T05:24:55;19.00;99.90
37974;DHT22;23796;51.458;7.000;2022-08-11T05:27:52;18.90;99.90
37974;DHT22;23796;51.458;7.000;2022-08-11T05:30:41;19.00;99.90
37974;DHT22;23796;51.458;7.000;2022-08-11T05:33:44;19.10;99.90
37974;DHT22;23796;51.458;7.000;2022-08-11T05:36:46;19.10;99.90
37974;DHT22;23796;51.458;7.000;2022-08-11T05:39:24;19.10;99.90
37974;DHT22;23796;51.458;7.000;2022-08-11T05:42:09;19.20;99.90
37974;DHT22;23796;51.458;7.000;2022-08-11T05:48:09;19.30;99.90
37974;DHT22;23796;51.458;7.000;2022-08-11T05:51:00;19.30;99.90
37974;DHT22;23796;51.458;7.000;2022-08-11T05:53:54;19.30;99.90
37974;DHT22;23796;51.458;7.000;2022-08-11T05:56:58;19.40;99.90
37974;DHT22;23796;51.458;7.000;2022-08-11T05:59:27;19.40;99.90
37974;DHT22;23796;51.458;7.000;2022-08-11T06:02:03;19.50;99.90
37974;DHT22;23796;51.458;7.000;2022-08-11T06:04:30;19.50;99.90
37974;DHT22;23796;51.458;7.000;2022-08-11T06:06:56;19.60;99.90
37974;DHT22;23796;51.458;7.000;2022-08-11T06:09:32;19.60;99.90
37974;DHT22;23796;51.458;7.000;2022-08-11T06:12:04;19.60;99.90
37974;DHT22;23796;51.458;7.000;2022-08-11T06:14:32;19.70;99.90
37974;DHT22;23796;51.458;7.000;2022-08-11T06:17:00;19.70;99.90
37974;DHT22;23796;51.458;7.000;2022-08-11T06:20:05;19.80;99.90
37974;DHT22;23796;51.458;7.000;2022-08-11T06:22:38;19.80;99.90
37974;DHT22;23796;51.458;7.000;2022-08-11T06:25:05;19.90;99.90
37974;DHT22;23796;51.458;7.000;2022-08-11T06:27:34;20.00;99.90
37974;DHT22;23796;51.458;7.000;2022-08-11T06:30:03;20.00;99.90
37974;DHT22;23796;51.458;7.000;2022-08-11T06:32:42;20.10;99.90
37974;DHT22;23796;51.458;7.000;2022-08-11T06:40:34;20.30;99.90
37974;DHT22;23796;51.458;7.000;2022-08-11T06:43:09;20.30;99.90
37974;DHT22;23796;51.458;7.000;2022-08-11T06:45:56;20.40;99.90
37974;DHT22;23796;51.458;7.000;2022-08-11T06:48:30;20.50;99.90
37974;DHT22;23796;51.458;7.000;2022-08-11T06:51:01;20.60;99.90
37974;DHT22;23796;51.458;7.000;2022-08-11T06:56:20;20.80;99.90
37974;DHT22;23796;51.458;7.000;2022-08-11T06:59:05;20.80;99.90
37974;DHT22;23796;51.458;7.000;2022-08-11T07:02:12;20.90;99.90
37974;DHT22;23796;51.458;7.000;2022-08-11T07:13:44;21.20;99.90
37974;DHT22;23796;51.458;7.000;2022-08-11T07:16:30;21.30;99.90
37974;DHT22;23796;51.458;7.000;2022-08-11T07:19:03;21.40;99.90
37974;DHT22;23796;51.458;7.000;2022-08-11T07:21:49;21.50;99.90
37974;DHT22;23796;51.458;7.000;2022-08-11T07:24:54;21.60;99.90
37974;DHT22;23796;51.458;7.000;2022-08-11T07:27:43;21.70;99.90
37974;DHT22;23796;51.458;7.000;2022-08-11T07:30:29;21.80;99.90
37974;DHT22;23796;51.458;7.000;2022-08-11T07:32:59;21.90;99.90
37974;DHT22;23796;51.458;7.000;2022-08-11T07:35:37;21.90;99.90
37974;DHT22;23796;51.458;7.000;2022-08-11T07:38:33;22.00;99.90
37974;DHT22;23796;51.458;7.000;2022-08-11T07:41:15;22.10;99.90
37974;DHT22;23796;51.458;7.000;2022-08-11T07:43:43;22.10;99.90
37974;DHT22;23796;51.458;7.000;2022-08-11T07:46:13;22.20;99.90
37974;DHT22;23796;51.458;7.000;2022-08-11T07:48:59;22.40;99.90
37974;DHT22;23796;51.458;7.000;2022-08-11T07:51:45;22.50;99.90
37974;DHT22;23796;51.458;7.000;2022-08-11T07:54:30;22.50;99.90
37974;DHT22;23796;51.458;7.000;2022-08-11T07:56:59;22.60;99.90
37974;DHT22;23796;51.458;7.000;2022-08-11T07:59:25;22.80;99.90
37974;DHT22;23796;51.458;7.000;2022-08-11T08:02:11;23.00;99.90
37974;DHT22;23796;51.458;7.000;2022-08-11T08:04:58;23.10;99.90
37974;DHT22;23796;51.458;7.000;2022-08-11T08:07:42;23.10;99.90
37974;DHT22;23796;51.458;7.000;2022-08-11T08:10:30;23.20;99.90
37974;DHT22;23796;51.458;7.000;2022-08-11T08:13:15;23.20;99.90
37974;DHT22;23796;51.458;7.000;2022-08-11T08:16:00;23.40;99.90
37974;DHT22;23796;51.458;7.000;2022-08-11T08:18:45;23.50;99.90
37974;DHT22;23796;51.458;7.000;2022-08-11T08:21:12;23.60;99.90
37974;DHT22;23796;51.458;7.000;2022-08-11T08:23:45;23.60;99.90
37974;DHT22;23796;51.458;7.000;2022-08-11T08:26:14;23.90;99.90
37974;DHT22;23796;51.458;7.000;2022-08-11T08:29:02;23.90;99.90
37974;DHT22;23796;51.458;7.000;2022-08-11T08:31:47;24.00;99.90
37974;DHT22;23796;51.458;7.000;2022-08-11T08:34:14;24.00;99.90
37974;DHT22;23796;51.458;7.000;2022-08-11T08:36:48;24.10;99.90
37974;DHT22;23796;51.458;7.000;2022-08-11T08:39:18;24.30;99.90
37974;DHT22;23796;51.458;7.000;2022-08-11T08:41:53;24.30;99.90
37974;DHT22;23796;51.458;7.000;2022-08-11T08:44:20;24.30;99.90
37974;DHT22;23796;51.458;7.000;2022-08-11T08:46:56;24.50;99.90
37974;DHT22;23796;51.458;7.000;2022-08-11T08:49:32;24.50;99.90
37974;DHT22;23796;51.458;7.000;2022-08-11T08:52:07;24.60;99.90
37974;DHT22;23796;51.458;7.000;2022-08-11T08:54:36;24.70;99.90
37974;DHT22;23796;51.458;7.000;2022-08-11T08:57:06;24.80;99.80
37974;DHT22;23796;51.458;7.000;2022-08-11T08:59:38;24.90;99.80
37974;DHT22;23796;51.458;7.000;2022-08-11T09:02:05;24.90;99.20
37974;DHT22;23796;51.458;7.000;2022-08-11T09:04:32;25.00;99.40
37974;DHT22;23796;51.458;7.000;2022-08-11T09:06:59;25.10;99.00
37974;DHT22;23796;51.458;7.000;2022-08-11T09:09:27;25.20;98.50
37974;DHT22;23796;51.458;7.000;2022-08-11T09:11:56;25.30;98.10
37974;DHT22;23796;51.458;7.000;2022-08-11T09:14:22;25.60;97.50
37974;DHT22;23796;51.458;7.000;2022-08-11T09:16:50;25.60;97.20
37974;DHT22;23796;51.458;7.000;2022-08-11T09:19:22;25.70;96.90
37974;DHT22;23796;51.458;7.000;2022-08-11T09:21:51;25.60;97.30
37974;DHT22;23796;51.458;7.000;2022-08-11T09:24:39;25.70;97.00
37974;DHT22;23796;51.458;7.000;2022-08-11T09:27:24;25.80;96.50
37974;DHT22;23796;51.458;7.000;2022-08-11T09:29:51;25.90;96.60
37974;DHT22;23796;51.458;7.000;2022-08-11T09:32:20;26.00;96.10
37974;DHT22;23796;51.458;7.000;2022-08-11T09:34:47;26.10;96.10
37974;DHT22;23796;51.458;7.000;2022-08-11T09:37:20;26.10;95.20
37974;DHT22;23796;51.458;7.000;2022-08-11T09:40:06;26.10;95.30
37974;DHT22;23796;51.458;7.000;2022-08-11T09:42:52;26.20;94.90
37974;DHT22;23796;51.458;7.000;2022-08-11T09:45:37;26.30;94.00
37974;DHT22;23796;51.458;7.000;2022-08-11T09:48:03;26.40;93.80
37974;DHT22;23796;51.458;7.000;2022-08-11T09:50:33;26.50;93.00
37974;DHT22;23796;51.458;7.000;2022-08-11T09:52:59;26.60;92.40
37974;DHT22;23796;51.458;7.000;2022-08-11T09:55:31;26.60;92.70
37974;DHT22;23796;51.458;7.000;2022-08-11T09:57:57;26.60;92.70
37974;DHT22;23796;51.458;7.000;2022-08-11T10:00:43;26.80;92.10
37974;DHT22;23796;51.458;7.000;2022-08-11T10:03:15;26.90;91.60
37974;DHT22;23796;51.458;7.000;2022-08-11T10:05:46;27.00;92.00
37974;DHT22;23796;51.458;7.000;2022-08-11T10:08:31;27.00;91.40
37974;DHT22;23796;51.458;7.000;2022-08-11T10:10:59;27.00;90.70
37974;DHT22;23796;51.458;7.000;2022-08-11T10:13:29;27.00;89.50
37974;DHT22;23796;51.458;7.000;2022-08-11T10:16:01;27.10;89.50
37974;DHT22;23796;51.458;7.000;2022-08-11T10:18:38;27.10;88.90
37974;DHT22;23796;51.458;7.000;2022-08-11T10:21:37;27.10;87.40
37974;DHT22;23796;51.458;7.000;2022-08-11T10:24:05;27.30;85.70
37974;DHT22;23796;51.458;7.000;2022-08-11T10:26:52;27.40;87.20
37974;DHT22;23796;51.458;7.000;2022-08-11T10:29:36;27.40;83.80
37974;DHT22;23796;51.458;7.000;2022-08-11T10:32:27;27.50;83.50
37974;DHT22;23796;51.458;7.000;2022-08-11T10:35:15;27.60;84.00
37974;DHT22;23796;51.458;7.000;2022-08-11T10:37:44;27.60;82.20
37974;DHT22;23796;51.458;7.000;2022-08-11T10:40:15;27.70;81.50
37974;DHT22;23796;51.458;7.000;2022-08-11T10:42:42;27.70;81.70
37974;DHT22;23796;51.458;7.000;2022-08-11T10:45:30;27.80;82.60
37974;DHT22;23796;51.458;7.000;2022-08-11T10:48:17;27.80;82.90
37974;DHT22;23796;51.458;7.000;2022-08-11T10:50:49;28.00;81.50
37974;DHT22;23796;51.458;7.000;2022-08-11T10:53:35;28.00;82.30
37974;DHT22;23796;51.458;7.000;2022-08-11T10:56:21;28.00;82.10
37974;DHT22;23796;51.458;7.000;2022-08-11T10:59:11;28.10;81.00
37974;DHT22;23796;51.458;7.000;2022-08-11T11:01:40;28.20;80.50
37974;DHT22;23796;51.458;7.000;2022-08-11T11:04:23;28.20;79.20
37974;DHT22;23796;51.458;7.000;2022-08-11T11:07:09;28.30;79.20
37974;DHT22;23796;51.458;7.000;2022-08-11T11:10:00;28.30;79.30
37974;DHT22;23796;51.458;7.000;2022-08-11T11:15:26;28.30;79.00
37974;DHT22;23796;51.458;7.000;2022-08-11T11:21:04;28.40;79.50
37974;DHT22;23796;51.458;7.000;2022-08-11T11:32:48;28.70;76.80
37974;DHT22;23796;51.458;7.000;2022-08-11T11:37:49;28.70;77.00
37974;DHT22;23796;51.458;7.000;2022-08-11T11:40:18;28.80;75.90
37974;DHT22;23796;51.458;7.000;2022-08-11T11:42:49;28.90;75.60
37974;DHT22;23796;51.458;7.000;2022-08-11T11:45:19;28.90;75.70
37974;DHT22;23796;51.458;7.000;2022-08-11T11:47:51;29.00;74.90
37974;DHT22;23796;51.458;7.000;2022-08-11T11:50:36;29.10;74.50
37974;DHT22;23796;51.458;7.000;2022-08-11T11:53:09;29.00;74.70
37974;DHT22;23796;51.458;7.000;2022-08-11T11:55:36;28.90;73.50
37974;DHT22;23796;51.458;7.000;2022-08-11T11:58:03;29.00;74.60
37974;DHT22;23796;51.458;7.000;2022-08-11T12:00:48;29.10;74.50
37974;DHT22;23796;51.458;7.000;2022-08-11T12:03:35;29.20;74.20
37974;DHT22;23796;51.458;7.000;2022-08-11T12:06:02;29.30;74.60
37974;DHT22;23796;51.458;7.000;2022-08-11T12:08:29;29.30;74.60
37974;DHT22;23796;51.458;7.000;2022-08-11T12:11:01;29.30;74.20
37974;DHT22;23796;51.458;7.000;2022-08-11T12:13:47;29.40;73.90
37974;DHT22;23796;51.458;7.000;2022-08-11T12:16:17;29.40;72.90
37974;DHT22;23796;51.458;7.000;2022-08-11T12:18:46;29.40;73.00
37974;DHT22;23796;51.458;7.000;2022-08-11T12:21:14;29.50;72.80
37974;DHT22;23796;51.458;7.000;2022-08-11T12:23:43;29.40;72.30
37974;DHT22;23796;51.458;7.000;2022-08-11T12:26:29;29.30;72.30
37974;DHT22;23796;51.458;7.000;2022-08-11T12:29:05;29.40;73.10
37974;DHT22;23796;51.458;7.000;2022-08-11T12:31:36;29.60;72.70
37974;DHT22;23796;51.458;7.000;2022-08-11T12:34:10;29.70;72.90
37974;DHT22;23796;51.458;7.000;2022-08-11T12:36:40;29.70;71.10
37974;DHT22;23796;51.458;7.000;2022-08-11T12:39:11;29.70;72.00
37974;DHT22;23796;51.458;7.000;2022-08-11T12:41:38;29.70;71.60
37974;DHT22;23796;51.458;7.000;2022-08-11T12:44:27;29.70;71.30
37974;DHT22;23796;51.458;7.000;2022-08-11T12:47:16;29.60;70.40
37974;DHT22;23796;51.458;7.000;2022-08-11T12:49:45;29.60;70.90
37974;DHT22;23796;51.458;7.000;2022-08-11T12:52:36;29.60;71.80
37974;DHT22;23796;51.458;7.000;2022-08-11T12:55:18;29.80;71.40
37974;DHT22;23796;51.458;7.000;2022-08-11T12:58:06;29.80;70.00
37974;DHT22;23796;51.458;7.000;2022-08-11T13:00:45;29.90;71.50
37974;DHT22;23796;51.458;7.000;2022-08-11T13:03:31;30.10;70.30
37974;DHT22;23796;51.458;7.000;2022-08-11T13:06:17;30.00;70.30
37974;DHT22;23796;51.458;7.000;2022-08-11T13:08:46;30.00;68.60
37974;DHT22;23796;51.458;7.000;2022-08-11T13:11:15;30.00;69.00
37974;DHT22;23796;51.458;7.000;2022-08-11T13:14:00;30.00;69.70
37974;DHT22;23796;51.458;7.000;2022-08-11T13:16:31;30.10;69.00
37974;DHT22;23796;51.458;7.000;2022-08-11T13:19:19;30.00;68.20
37974;DHT22;23796;51.458;7.000;2022-08-11T13:21:46;29.80;69.70
37974;DHT22;23796;51.458;7.000;2022-08-11T13:24:16;29.90;69.90
37974;DHT22;23796;51.458;7.000;2022-08-11T13:26:43;30.00;68.80
37974;DHT22;23796;51.458;7.000;2022-08-11T13:29:10;30.10;69.20
37974;DHT22;23796;51.458;7.000;2022-08-11T13:31:36;30.20;68.60
37974;DHT22;23796;51.458;7.000;2022-08-11T13:34:05;30.30;69.40
37974;DHT22;23796;51.458;7.000;2022-08-11T13:36:35;30.30;68.90
37974;DHT22;23796;51.458;7.000;2022-08-11T13:39:01;30.40;69.30
37974;DHT22;23796;51.458;7.000;2022-08-11T13:41:28;30.40;69.20
37974;DHT22;23796;51.458;7.000;2022-08-11T13:44:05;30.40;69.30
37974;DHT22;23796;51.458;7.000;2022-08-11T13:46:34;30.50;69.00
37974;DHT22;23796;51.458;7.000;2022-08-11T13:49:01;30.50;68.50
37974;DHT22;23796;51.458;7.000;2022-08-11T13:51:28;30.50;68.10
37974;DHT22;23796;51.458;7.000;2022-08-11T13:54:07;30.60;68.00
37974;DHT22;23796;51.458;7.000;2022-08-11T13:56:35;30.50;67.50
37974;DHT22;23796;51.458;7.000;2022-08-11T13:59:04;30.50;68.40
37974;DHT22;23796;51.458;7.000;2022-08-11T14:01:34;30.50;68.00
37974;DHT22;23796;51.458;7.000;2022-08-11T14:04:29;30.60;67.40
37974;DHT22;23796;51.458;7.000;2022-08-11T14:06:56;30.50;67.10
37974;DHT22;23796;51.458;7.000;2022-08-11T14:09:33;30.50;67.60
37974;DHT22;23796;51.458;7.000;2022-08-11T14:12:01;30.60;68.30
37974;DHT22;23796;51.458;7.000;2022-08-11T14:14:53;30.60;67.30
37974;DHT22;23796;51.458;7.000;2022-08-11T14:17:23;30.60;67.20
37974;DHT22;23796;51.458;7.000;2022-08-11T14:19:50;30.60;66.70
37974;DHT22;23796;51.458;7.000;2022-08-11T14:22:18;30.70;67.20
37974;DHT22;23796;51.458;7.000;2022-08-11T14:24:47;30.70;67.60
37974;DHT22;23796;51.458;7.000;2022-08-11T14:27:16;30.50;65.70
37974;DHT22;23796;51.458;7.000;2022-08-11T14:29:50;30.50;66.80
37974;DHT22;23796;51.458;7.000;2022-08-11T14:32:19;30.70;66.10
37974;DHT22;23796;51.458;7.000;2022-08-11T14:34:48;30.70;66.50
37974;DHT22;23796;51.458;7.000;2022-08-11T14:37:19;30.70;66.50
37974;DHT22;23796;51.458;7.000;2022-08-11T14:39:50;30.80;66.40
37974;DHT22;23796;51.458;7.000;2022-08-11T14:42:19;30.90;65.70
37974;DHT22;23796;51.458;7.000;2022-08-11T14:45:09;30.90;65.20
37974;DHT22;23796;51.458;7.000;2022-08-11T14:48:03;30.80;63.70
37974;DHT22;23796;51.458;7.000;2022-08-11T14:50:32;30.80;65.00
37974;DHT22;23796;51.458;7.000;2022-08-11T14:53:04;30.90;65.20
37974;DHT22;23796;51.458;7.000;2022-08-11T14:55:35;30.90;64.60
37974;DHT22;23796;51.458;7.000;2022-08-11T14:58:23;31.00;64.60
37974;DHT22;23796;51.458;7.000;2022-08-11T15:00:58;31.10;63.70
37974;DHT22;23796;51.458;7.000;2022-08-11T15:03:28;31.10;64.00
37974;DHT22;23796;51.458;7.000;2022-08-11T15:05:57;31.10;63.70
37974;DHT22;23796;51.458;7.000;2022-08-11T15:08:36;31.00;63.60
37974;DHT22;23796;51.458;7.000;2022-08-11T15:11:28;31.10;62.90
37974;DHT22;23796;51.458;7.000;2022-08-11T15:14:13;31.10;63.40
37974;DHT22;23796;51.458;7.000;2022-08-11T15:16:43;31.10;64.00
37974;DHT22;23796;51.458;7.000;2022-08-11T15:19:30;31.10;63.70
37974;DHT22;23796;51.458;7.000;2022-08-11T15:21:57;31.10;63.80
37974;DHT22;23796;51.458;7.000;2022-08-11T15:24:41;31.10;63.00
37974;DHT22;23796;51.458;7.000;2022-08-11T15:27:13;31.10;63.40
37974;DHT22;23796;51.458;7.000;2022-08-11T15:30:02;31.00;63.60
37974;DHT22;23796;51.458;7.000;2022-08-11T15:32:47;31.10;63.20
37974;DHT22;23796;51.458;7.000;2022-08-11T15:35:33;31.00;63.20
37974;DHT22;23796;51.458;7.000;2022-08-11T15:38:20;31.00;63.40
37974;DHT22;23796;51.458;7.000;2022-08-11T15:40:47;31.00;62.90
37974;DHT22;23796;51.458;7.000;2022-08-11T15:43:45;30.90;62.10
37974;DHT22;23796;51.458;7.000;2022-08-11T15:46:37;30.90;62.10
37974;DHT22;23796;51.458;7.000;2022-08-11T15:49:17;30.80;62.00
37974;DHT22;23796;51.458;7.000;2022-08-11T15:52:08;30.80;61.80
37974;DHT22;23796;51.458;7.000;2022-08-11T15:54:34;30.80;61.70
37974;DHT22;23796;51.458;7.000;2022-08-11T15:57:06;30.90;61.90
37974;DHT22;23796;51.458;7.000;2022-08-11T15:59:35;30.90;61.20
37974;DHT22;23796;51.458;7.000;2022-08-11T16:02:23;30.90;61.50
37974;DHT22;23796;51.458;7.000;2022-08-11T16:04:50;30.90;61.40
37974;DHT22;23796;51.458;7.000;2022-08-11T16:07:19;30.90;61.10
37974;DHT22;23796;51.458;7.000;2022-08-11T16:10:10;31.00;61.30
37974;DHT22;23796;51.458;7.000;2022-08-11T16:12:37;31.10;61.30
37974;DHT22;23796;51.458;7.000;2022-08-11T16:15:08;31.10;61.20
37974;DHT22;23796;51.458;7.000;2022-08-11T16:17:56;31.10;61.00
37974;DHT22;23796;51.458;7.000;2022-08-11T16:20:28;31.20;60.40
37974;DHT22;23796;51.458;7.000;2022-08-11T16:23:02;31.30;61.10
37974;DHT22;23796;51.458;7.000;2022-08-11T16:25:33;31.50;61.40
37974;DHT22;23796;51.458;7.000;2022-08-11T16:28:02;31.50;60.60
37974;DHT22;23796;51.458;7.000;2022-08-11T16:30:39;31.80;60.80
37974;DHT22;23796;51.458;7.000;2022-08-11T16:33:07;32.00;60.60
37974;DHT22;23796;51.458;7.000;2022-08-11T16:35:35;32.20;60.00
37974;DHT22;23796;51.458;7.000;2022-08-11T16:38:26;32.30;59.60
37974;DHT22;23796;51.458;7.000;2022-08-11T16:41:01;32.30;59.70
37974;DHT22;23796;51.458;7.000;2022-08-11T16:43:30;32.70;59.50
37974;DHT22;23796;51.458;7.000;2022-08-11T16:46:16;32.80;59.00
37974;DHT22;23796;51.458;7.000;2022-08-11T16:49:07;32.90;58.90
37974;DHT22;23796;51.458;7.000;2022-08-11T16:51:35;33.20;58.60
37974;DHT22;23796;51.458;7.000;2022-08-11T16:54:01;33.50;58.10
37974;DHT22;23796;51.458;7.000;2022-08-11T16:56:33;33.60;58.00
37974;DHT22;23796;51.458;7.000;2022-08-11T16:59:01;34.40;57.40
37974;DHT22;23796;51.458;7.000;2022-08-11T17:01:40;35.60;56.70
37974;DHT22;23796;51.458;7.000;2022-08-11T17:04:12;36.00;56.20
37974;DHT22;23796;51.458;7.000;2022-08-11T17:06:58;36.70;55.50
37974;DHT22;23796;51.458;7.000;2022-08-11T17:10:02;37.20;55.00
37974;DHT22;23796;51.458;7.000;2022-08-11T17:12:49;37.70;54.10
37974;DHT22;23796;51.458;7.000;2022-08-11T17:16:03;37.90;53.80
37974;DHT22;23796;51.458;7.000;2022-08-11T17:18:43;38.20;53.10
37974;DHT22;23796;51.458;7.000;2022-08-11T17:21:25;38.50;52.30
37974;DHT22;23796;51.458;7.000;2022-08-11T17:24:06;38.30;52.80
37974;DHT22;23796;51.458;7.000;2022-08-11T17:26:43;38.40;51.60
37974;DHT22;23796;51.458;7.000;2022-08-11T17:32:10;37.20;51.40
37974;DHT22;23796;51.458;7.000;2022-08-11T17:34:58;35.00;52.50
37974;DHT22;23796;51.458;7.000;2022-08-11T17:37:43;34.10;53.20
37974;DHT22;23796;51.458;7.000;2022-08-11T17:40:13;33.60;53.50
37974;DHT22;23796;51.458;7.000;2022-08-11T17:42:41;33.20;53.80
37974;DHT22;23796;51.458;7.000;2022-08-11T17:45:26;32.70;54.30
37974;DHT22;23796;51.458;7.000;2022-08-11T17:48:27;32.30;54.50
37974;DHT22;23796;51.458;7.000;2022-08-11T17:50:56;32.10;54.90
37974;DHT22;23796;51.458;7.000;2022-08-11T17:53:25;31.80;55.00
37974;DHT22;23796;51.458;7.000;2022-08-11T17:56:10;31.60;55.10
37974;DHT22;23796;51.458;7.000;2022-08-11T17:58:58;31.40;55.50
37974;DHT22;23796;51.458;7.000;2022-08-11T18:01:43;31.00;55.70
37974;DHT22;23796;51.458;7.000;2022-08-11T18:04:16;30.80;56.00
37974;DHT22;23796;51.458;7.000;2022-08-11T18:06:42;30.50;56.30
37974;DHT22;23796;51.458;7.000;2022-08-11T18:09:22;30.40;56.50
37974;DHT22;23796;51.458;7.000;2022-08-11T18:12:08;30.30;56.50
37974;DHT22;23796;51.458;7.000;2022-08-11T18:14:56;30.20;56.70
37974;DHT22;23796;51.458;7.000;2022-08-11T18:17:43;30.10;56.90
37974;DHT22;23796;51.458;7.000;2022-08-11T18:20:30;30.00;57.10
37974;DHT22;23796;51.458;7.000;2022-08-11T18:23:17;29.90;57.40
37974;DHT22;23796;51.458;7.000;2022-08-11T18:26:07;29.80;57.50
37974;DHT22;23796;51.458;7.000;2022-08-11T18:28:55;29.70;58.30
37974;DHT22;23796;51.458;7.000;2022-08-11T18:31:47;29.50;58.00
37974;DHT22;23796;51.458;7.000;2022-08-11T18:34:36;29.40;58.20
37974;DHT22;23796;51.458;7.000;2022-08-11T18:37:26;29.30;58.40
37974;DHT22;23796;51.458;7.000;2022-08-11T18:40:19;29.20;58.60
37974;DHT22;23796;51.458;7.000;2022-08-11T18:43:08;29.10;58.80
37974;DHT22;23796;51.458;7.000;2022-08-11T18:45:58;29.00;59.00
37974;DHT22;23796;51.458;7.000;2022-08-11T18:48:48;28.80;59.60
37974;DHT22;23796;51.458;7.000;2022-08-11T18:51:34;28.70;59.20
37974;DHT22;23796;51.458;7.000;2022-08-11T18:54:20;28.60;59.50
37974;DHT22;23796;51.458;7.000;2022-08-11T18:57:09;28.50;59.60
37974;DHT22;23796;51.458;7.000;2022-08-11T19:00:00;28.40;59.90
37974;DHT22;23796;51.458;7.000;2022-08-11T19:02:48;28.30;60.00
37974;DHT22;23796;51.458;7.000;2022-08-11T19:05:33;28.20;60.20
37974;DHT22;23796;51.458;7.000;2022-08-11T19:08:20;28.10;60.40
37974;DHT22;23796;51.458;7.000;2022-08-11T19:11:06;28.00;60.60
37974;DHT22;23796;51.458;7.000;2022-08-11T19:13:52;27.90;60.80
37974;DHT22;23796;51.458;7.000;2022-08-11T19:16:37;27.80;61.00
37974;DHT22;23796;51.458;7.000;2022-08-11T19:19:25;27.80;61.30
37974;DHT22;23796;51.458;7.000;2022-08-11T19:22:12;27.60;61.40
37974;DHT22;23796;51.458;7.000;2022-08-11T19:25:00;27.60;61.50
37974;DHT22;23796;51.458;7.000;2022-08-11T19:27:47;27.50;61.80
37974;DHT22;23796;51.458;7.000;2022-08-11T19:30:34;27.40;62.10
37974;DHT22;23796;51.458;7.000;2022-08-11T19:33:19;27.30;62.30
37974;DHT22;23796;51.458;7.000;2022-08-11T19:36:05;27.20;62.30
37974;DHT22;23796;51.458;7.000;2022-08-11T19:38:49;27.20;62.50
37974;DHT22;23796;51.458;7.000;2022-08-11T19:41:35;27.10;62.70
37974;DHT22;23796;51.458;7.000;2022-08-11T19:44:21;27.00;62.90
37974;DHT22;23796;51.458;7.000;2022-08-11T19:47:06;26.90;63.20
37974;DHT22;23796;51.458;7.000;2022-08-11T19:49:51;26.90;63.30
37974;DHT22;23796;51.458;7.000;2022-08-11T19:52:37;26.80;63.90
37974;DHT22;23796;51.458;7.000;2022-08-11T19:55:26;26.70;63.70
37974;DHT22;23796;51.458;7.000;2022-08-11T19:58:11;26.60;63.90
37974;DHT22;23796;51.458;7.000;2022-08-11T20:00:56;26.60;64.10
37974;DHT22;23796;51.458;7.000;2022-08-11T20:03:40;26.50;64.30
37974;DHT22;23796;51.458;7.000;2022-08-11T20:06:25;26.40;64.50
37974;DHT22;23796;51.458;7.000;2022-08-11T20:09:13;26.40;64.80
37974;DHT22;23796;51.458;7.000;2022-08-11T20:12:01;26.30;65.00
37974;DHT22;23796;51.458;7.000;2022-08-11T20:14:48;26.20;65.20
37974;DHT22;23796;51.458;7.000;2022-08-11T20:17:37;26.20;65.50
37974;DHT22;23796;51.458;7.000;2022-08-11T20:20:25;26.10;65.80
37974;DHT22;23796;51.458;7.000;2022-08-11T20:23:12;26.00;65.90
37974;DHT22;23796;51.458;7.000;2022-08-11T20:25:58;26.00;66.10
37974;DHT22;23796;51.458;7.000;2022-08-11T20:28:43;25.90;66.20
37974;DHT22;23796;51.458;7.000;2022-08-11T20:31:27;25.90;66.40
37974;DHT22;23796;51.458;7.000;2022-08-11T20:34:15;25.80;66.50
37974;DHT22;23796;51.458;7.000;2022-08-11T20:37:04;25.80;66.70
37974;DHT22;23796;51.458;7.000;2022-08-11T20:39:50;25.70;66.80